Time;durP1;ratioP1;P1;durP2;ratioP2;P2;SDS_P1;SDS_P2;PMS_P1;PMS_P2;Temp;Humidity;BMP_temperature;BMP_pressure;BME280_temperature;BME280_humidity;BME280_pressure;Samples;Min_cycle;Max_cycle;Signal;HPM_P1;HPM_P2
2022/12/14 00:00:17;;;;;;;;;1.80;1.40;;;;;-2.29;80.45;98857.16;5079129;28;8845;-57
2022/12/14 00:02:47;;;;;;;;;3.00;3.00;;;;;-2.29;80.29;98855.38;5078587;28;8848;-58
2022/12/14 00:05:18;;;;;;;;;1.40;1.40;;;;;-2.30;80.36;98855.44;5078126;28;8814;-58
2022/12/14 00:07:46;;;;;;;;;1.00;1.00;;;;;-2.30;79.82;98847.63;5078223;28;8838;-57
2022/12/14 00:10:15;;;;;;;;;3.20;3.00;;;;;-2.31;80.48;98840.72;5078416;28;8842;-58
2022/12/14 00:12:43;;;;;;;;;1.80;1.40;;;;;-2.33;80.11;98835.59;5078620;28;8849;-58
2022/12/14 00:15:11;;;;;;;;;1.00;1.00;;;;;-2.35;80.35;98829.59;5078160;28;8834;-58
2022/12/14 00:17:38;;;;;;;;;3.00;2.60;;;;;-2.35;80.12;98826.16;5078203;28;8852;-56
2022/12/14 00:20:07;;;;;;;;;1.80;1.40;;;;;-2.37;80.13;98820.16;5078780;28;8849;-58
2022/12/14 00:22:35;;;;;;;;;4.00;4.00;;;;;-2.40;80.13;98822.91;5078354;28;8838;-58
2022/12/14 00:25:02;;;;;;;;;0.60;0.60;;;;;-2.44;80.63;98823.97;5078646;28;8822;-58
2022/12/14 00:27:32;;;;;;;;;4.00;3.00;;;;;-2.48;80.53;98822.41;5078418;28;8841;-56
2022/12/14 00:30:00;;;;;;;;;3.00;3.00;;;;;-2.50;80.11;98821.66;5077882;28;8841;-58
2022/12/14 00:32:27;;;;;;;;;1.00;1.00;;;;;-2.52;79.85;98818.25;5078032;28;8936;-58
2022/12/14 00:34:55;;;;;;;;;1.00;1.00;;;;;-2.53;79.88;98817.41;5078389;28;8834;-58
2022/12/14 00:37:23;;;;;;;;;1.00;1.00;;;;;-2.53;80.21;98813.94;5078228;28;8830;-57
2022/12/14 00:39:52;;;;;;;;;2.60;2.60;;;;;-2.54;80.49;98814.88;5077952;28;8814;-57
2022/12/14 00:42:19;;;;;;;;;3.00;1.00;;;;;-2.55;80.45;98803.63;5077994;28;8818;-56
2022/12/14 00:44:47;;;;;;;;;2.60;2.60;;;;;-2.49;79.97;98802.47;5077895;28;8830;-58
2022/12/14 00:47:15;;;;;;;;;1.40;1.40;;;;;-2.44;80.08;98800.53;5077630;28;8822;-57
2022/12/14 00:49:42;;;;;;;;;0.80;0.80;;;;;-2.41;80.73;98789.94;5078219;28;9488;-58
2022/12/14 00:52:14;;;;;;;;;3.00;3.00;;;;;-2.39;79.87;98785.50;5077735;28;8927;-57
2022/12/14 00:54:42;;;;;;;;;2.20;2.20;;;;;-2.38;80.13;98795.88;5077708;28;8833;-58
2022/12/14 00:57:10;;;;;;;;;2.20;2.20;;;;;-2.39;79.94;98783.75;5077775;28;8911;-58
2022/12/14 00:59:37;;;;;;;;;3.00;3.00;;;;;-2.41;79.91;98788.16;5077605;28;8818;-58
2022/12/14 01:02:05;;;;;;;;;0.00;0.00;;;;;-2.41;80.57;98789.94;5077746;28;8939;-55
2022/12/14 01:04:33;;;;;;;;;2.20;1.40;;;;;-2.43;80.01;98786.56;5077400;28;8837;-58
2022/12/14 01:07:01;;;;;;;;;1.80;1.80;;;;;-2.43;80.28;98794.41;5077062;28;8900;-58
2022/12/14 01:09:28;;;;;;;;;2.20;2.20;;;;;-2.43;79.99;98791.78;5077268;28;8818;-58
2022/12/14 01:11:56;;;;;;;;;2.60;2.60;;;;;-2.45;79.79;98783.19;5077258;28;8952;-56
2022/12/14 01:14:23;;;;;;;;;4.00;3.40;;;;;-2.48;79.92;98778.97;5077245;28;8919;-57
2022/12/14 01:16:51;;;;;;;;;1.80;1.80;;;;;-2.50;79.96;98772.16;5077302;28;8834;-57
2022/12/14 01:19:19;;;;;;;;;1.00;1.00;;;;;-2.53;80.15;98769.66;5077042;28;8825;-56
2022/12/14 01:21:46;;;;;;;;;0.20;0.20;;;;;-2.56;80.29;98762.84;5077041;28;8919;-57
2022/12/14 01:24:14;;;;;;;;;0.80;0.80;;;;;-2.57;80.44;98763.75;5077459;28;8818;-58
2022/12/14 01:26:42;;;;;;;;;1.60;1.60;;;;;-2.57;79.73;98752.50;5077009;28;8810;-58
2022/12/14 01:29:10;;;;;;;;;1.00;1.00;;;;;-2.56;80.63;98757.66;5076825;28;9543;-58
2022/12/14 01:31:37;;;;;;;;;1.40;1.40;;;;;-2.55;79.90;98756.72;5076854;28;8818;-57
2022/12/14 01:34:06;;;;;;;;;0.00;0.00;;;;;-2.53;80.47;98769.66;5077136;28;8834;-58
2022/12/14 01:36:34;;;;;;;;;2.60;1.00;;;;;-2.50;80.11;98766.94;5076604;28;8865;-58
2022/12/14 01:39:02;;;;;;;;;0.60;0.60;;;;;-2.48;79.63;98746.84;5076834;28;9606;-58
2022/12/14 01:41:30;;;;;;;;;1.00;1.00;;;;;-2.44;79.58;98744.03;5076730;28;8922;-58
2022/12/14 01:43:57;;;;;;;;;0.80;0.80;;;;;-2.41;79.87;98756.06;5077200;28;8846;-58
2022/12/14 01:46:25;;;;;;;;;0.40;0.40;;;;;-2.41;79.46;98753.47;5076775;28;8845;-58
2022/12/14 01:48:53;;;;;;;;;1.00;1.00;;;;;-2.40;80.13;98747.34;5076468;28;8899;-58
2022/12/14 01:51:20;;;;;;;;;0.80;0.80;;;;;-2.38;79.68;98758.53;5076492;28;8870;-57
2022/12/14 01:53:48;;;;;;;;;1.00;1.00;;;;;-2.35;79.35;98742.75;5076065;28;8826;-57
2022/12/14 01:56:15;;;;;;;;;2.60;1.00;;;;;-2.33;79.43;98743.53;5076585;28;8826;-56
2022/12/14 01:58:43;;;;;;;;;1.00;1.00;;;;;-2.30;79.66;98738.16;5076568;28;8837;-58
2022/12/14 02:01:11;;;;;;;;;0.60;0.60;;;;;-2.30;79.59;98735.56;5076346;28;8838;-58
2022/12/14 02:03:39;;;;;;;;;0.00;0.00;;;;;-2.35;79.36;98721.91;5075898;28;8846;-56
2022/12/14 02:06:07;;;;;;;;;1.00;1.00;;;;;-2.39;79.58;98723.81;5076625;28;8822;-56
2022/12/14 02:08:35;;;;;;;;;1.00;1.00;;;;;-2.42;79.62;98730.94;5076763;28;8895;-58
2022/12/14 02:11:02;;;;;;;;;1.00;1.00;;;;;-2.43;79.65;98718.84;5074635;28;8895;-58
2022/12/14 02:13:30;;;;;;;;;1.00;1.00;;;;;-2.42;79.71;98716.13;5076734;28;8826;-57
2022/12/14 02:15:58;;;;;;;;;1.00;0.00;;;;;-2.40;79.62;98719.53;5076968;28;9577;-58
2022/12/14 02:18:25;;;;;;;;;2.20;2.20;;;;;-2.44;79.44;98712.75;5076749;28;8822;-58
2022/12/14 02:20:53;;;;;;;;;3.00;1.00;;;;;-2.48;79.92;98711.25;5076361;28;8810;-56
2022/12/14 02:23:21;;;;;;;;;1.00;1.00;;;;;-2.52;79.28;98707.06;5076412;28;8830;-58
2022/12/14 02:25:49;;;;;;;;;0.20;0.20;;;;;-2.56;79.50;98705.56;5076257;28;8849;-58
2022/12/14 02:28:16;;;;;;;;;1.00;1.00;;;;;-2.58;79.59;98693.50;5076792;28;8918;-58
2022/12/14 02:30:44;;;;;;;;;1.80;1.80;;;;;-2.63;79.61;98692.88;5076086;28;8806;-58
2022/12/14 02:33:12;;;;;;;;;1.00;1.00;;;;;-2.65;79.10;98697.31;5076361;28;8838;-58
2022/12/14 02:35:39;;;;;;;;;1.00;1.00;;;;;-2.62;79.49;98681.53;5076611;28;8838;-58
2022/12/14 02:38:07;;;;;;;;;0.00;0.00;;;;;-2.58;79.12;98676.09;5076229;28;8814;-57
2022/12/14 02:40:35;;;;;;;;;1.00;1.00;;;;;-2.53;79.33;98675.88;5076207;28;8830;-58
2022/12/14 02:43:03;;;;;;;;;1.00;1.00;;;;;-2.49;79.40;98672.22;5076510;28;8826;-59
2022/12/14 02:45:30;;;;;;;;;4.00;4.00;;;;;-2.47;79.35;98667.78;5076474;28;8916;-58
2022/12/14 02:47:58;;;;;;;;;0.00;0.00;;;;;-2.46;79.59;98672.06;5075958;28;8914;-58
2022/12/14 02:50:26;;;;;;;;;0.00;0.00;;;;;-2.51;79.34;98666.25;5075744;28;8814;-56
2022/12/14 02:52:54;;;;;;;;;0.00;0.00;;;;;-2.56;79.23;98663.00;5076300;28;8821;-58
2022/12/14 02:55:22;;;;;;;;;0.40;0.40;;;;;-2.62;79.08;98651.13;5075878;28;8846;-57
2022/12/14 02:57:49;;;;;;;;;1.00;1.00;;;;;-2.68;79.17;98648.81;5076313;28;8919;-58
2022/12/14 03:00:17;;;;;;;;;0.00;0.00;;;;;-2.74;79.77;98646.50;5075393;28;9706;-58
2022/12/14 03:02:45;;;;;;;;;1.00;0.00;;;;;-2.79;79.40;98638.03;5075722;28;8822;-58
2022/12/14 03:05:13;;;;;;;;;0.60;0.60;;;;;-2.81;79.86;98644.28;5075737;28;9499;-58
2022/12/14 03:07:42;;;;;;;;;0.00;0.00;;;;;-2.81;79.63;98633.84;5076170;28;8838;-58
2022/12/14 03:10:09;;;;;;;;;4.00;3.80;;;;;-2.76;80.02;98634.47;5075439;28;8838;-58
2022/12/14 03:12:37;;;;;;;;;0.00;0.00;;;;;-2.70;79.40;98635.03;5075709;28;8834;-58
2022/12/14 03:15:05;;;;;;;;;1.00;1.00;;;;;-2.67;79.00;98624.44;5075189;28;8833;-58
2022/12/14 03:17:32;;;;;;;;;0.20;0.00;;;;;-2.64;79.15;98637.31;5075909;28;8822;-58
2022/12/14 03:20:01;;;;;;;;;0.40;0.40;;;;;-2.62;79.44;98632.03;5076147;28;9459;-58
2022/12/14 03:22:28;;;;;;;;;0.00;0.00;;;;;-2.61;78.76;98631.97;5076236;28;8818;-58
2022/12/14 03:24:56;;;;;;;;;1.00;1.00;;;;;-2.57;79.28;98617.03;5076101;28;8830;-58
2022/12/14 03:27:24;;;;;;;;;1.80;0.40;;;;;-2.55;78.83;98610.00;5075915;28;8814;-58
2022/12/14 03:29:52;;;;;;;;;1.20;1.20;;;;;-2.56;79.21;98608.31;5075099;28;8813;-58
2022/12/14 03:32:20;;;;;;;;;0.40;0.40;;;;;-2.57;79.09;98611.84;5075570;28;8858;-58
2022/12/14 03:34:47;;;;;;;;;1.00;1.00;;;;;-2.55;79.29;98605.63;5075336;28;8818;-57
2022/12/14 03:37:15;;;;;;;;;1.00;1.00;;;;;-2.51;79.20;98595.91;5075658;28;8899;-56
2022/12/14 03:39:44;;;;;;;;;3.00;3.00;;;;;-2.46;78.83;98593.91;5075917;28;8810;-58
2022/12/14 03:42:11;;;;;;;;;0.00;0.00;;;;;-2.44;78.18;98589.47;5075714;28;8911;-57
2022/12/14 03:44:41;;;;;;;;;1.00;0.60;;;;;-2.43;78.90;98591.16;5075686;28;8826;-57
2022/12/14 03:47:16;;;;;;;;;0.80;0.00;;;;;-2.41;79.01;98591.94;5075592;28;8840;-56
2022/12/14 03:49:43;;;;;;;;;1.00;1.00;;;;;-2.39;78.43;98590.94;5075123;28;8814;-56
2022/12/14 03:52:15;;;;;;;;;0.00;0.00;;;;;-2.33;78.49;98580.22;5075426;28;8936;-57
2022/12/14 03:54:42;;;;;;;;;2.20;2.20;;;;;-2.29;78.20;98573.09;5075263;28;8825;-56
2022/12/14 03:57:10;;;;;;;;;0.40;0.40;;;;;-2.28;78.48;98573.00;5075208;28;8814;-56
2022/12/14 03:59:38;;;;;;;;;0.40;0.40;;;;;-2.28;78.23;98566.94;5075269;28;8883;-56
2022/12/14 04:02:06;;;;;;;;;1.00;1.00;;;;;-2.29;78.77;98568.69;5075424;28;8841;-56
2022/12/14 04:04:33;;;;;;;;;1.00;1.00;;;;;-2.30;78.06;98572.22;5075377;28;8826;-57
2022/12/14 04:07:02;;;;;;;;;0.60;0.00;;;;;-2.31;78.42;98559.25;5075711;28;8833;-58
2022/12/14 04:09:30;;;;;;;;;0.40;0.40;;;;;-2.32;77.73;98562.81;5075413;28;8857;-58
2022/12/14 04:20:15;;;;;;;;;0.00;0.00;;;;;-2.52;78.34;98560.34;5075159;28;9758;-58
2022/12/14 04:22:43;;;;;;;;;0.00;0.00;;;;;-2.58;78.77;98555.44;5075219;28;8806;-58
2022/12/14 04:27:56;;;;;;;;;1.40;1.00;;;;;-2.67;79.21;98563.69;5079057;28;8930;-57
2022/12/14 04:30:23;;;;;;;;;1.00;1.00;;;;;-2.70;78.50;98556.91;5078217;28;8899;-58
2022/12/14 04:32:51;;;;;;;;;1.00;1.00;;;;;-2.69;79.11;98555.13;5078759;28;8825;-58
2022/12/14 04:35:19;;;;;;;;;0.80;0.40;;;;;-2.66;78.94;98555.00;5078556;28;8841;-58
2022/12/14 04:37:47;;;;;;;;;0.00;0.00;;;;;-2.62;78.61;98546.09;5078376;28;8868;-57
2022/12/14 04:40:15;;;;;;;;;0.20;0.20;;;;;-2.59;78.56;98544.19;5077664;28;8863;-58
2022/12/14 04:42:42;;;;;;;;;0.00;0.00;;;;;-2.58;78.74;98553.69;5077535;28;8834;-57
2022/12/14 04:45:10;;;;;;;;;1.80;1.80;;;;;-2.59;78.59;98553.78;5076683;28;8818;-57
2022/12/14 04:47:38;;;;;;;;;0.00;0.00;;;;;-2.62;78.12;98553.91;5077667;28;8907;-58
2022/12/14 04:50:06;;;;;;;;;0.00;0.00;;;;;-2.63;78.98;98549.63;5076875;28;8810;-58
2022/12/14 04:52:33;;;;;;;;;1.00;1.00;;;;;-2.63;78.38;98549.63;5077595;28;8841;-59
2022/12/14 04:55:01;;;;;;;;;0.00;0.00;;;;;-2.64;78.88;98553.16;5077482;28;8846;-58
2022/12/14 04:57:29;;;;;;;;;0.80;0.80;;;;;-2.65;78.63;98547.06;5077317;28;8860;-56
2022/12/14 04:59:58;;;;;;;;;0.00;0.00;;;;;-2.66;78.55;98536.75;5078002;28;8830;-58
2022/12/14 05:02:25;;;;;;;;;0.00;0.00;;;;;-2.65;78.54;98535.84;5077966;28;8845;-58
2022/12/14 05:04:54;;;;;;;;;1.80;1.00;;;;;-2.64;78.70;98532.31;5078061;28;8818;-56
2022/12/14 05:07:22;;;;;;;;;0.00;0.00;;;;;-2.62;78.46;98533.94;5077998;28;8826;-58
2022/12/14 05:09:51;;;;;;;;;0.20;0.20;;;;;-2.62;78.77;98535.69;5077697;28;8794;-58
2022/12/14 05:12:20;;;;;;;;;1.00;1.00;;;;;-2.64;78.78;98532.31;5058233;28;8832;-56
2022/12/14 05:14:47;;;;;;;;;1.00;1.00;;;;;-2.64;78.70;98524.50;5057613;28;8827;-56
2022/12/14 05:17:15;;;;;;;;;1.00;1.00;;;;;-2.63;78.66;98523.56;5057236;28;8828;-57
2022/12/14 05:19:42;;;;;;;;;0.00;0.00;;;;;-2.60;78.46;98513.00;5059741;28;8915;-58
2022/12/14 05:22:20;;;;;;;;;1.00;1.00;;;;;-2.56;79.06;98506.72;5076229;28;8850;-59
2022/12/14 05:24:48;;;;;;;;;0.60;0.60;;;;;-2.50;78.39;98498.59;5076302;28;8948;-59
2022/12/14 05:27:15;;;;;;;;;0.20;0.00;;;;;-2.44;78.52;98500.91;5076544;28;8837;-58
2022/12/14 05:29:43;;;;;;;;;0.40;0.00;;;;;-2.38;78.68;98500.56;5076370;28;8826;-56
2022/12/14 05:32:11;;;;;;;;;1.00;1.00;;;;;-2.36;78.34;98490.94;5076938;28;8938;-58
2022/12/14 05:34:38;;;;;;;;;0.00;0.00;;;;;-2.34;78.04;98489.09;5077333;28;8818;-58
2022/12/14 05:37:06;;;;;;;;;0.00;0.00;;;;;-2.33;77.92;98485.56;5076321;28;8842;-56
2022/12/14 05:39:41;;;;;;;;;0.80;0.80;;;;;-2.34;78.47;98484.69;5076501;28;8822;-58
2022/12/14 05:42:08;;;;;;;;;0.80;0.60;;;;;-2.33;78.19;98472.53;5076697;28;8805;-58
2022/12/14 05:44:36;;;;;;;;;0.00;0.00;;;;;-2.34;78.23;98474.28;5076946;28;8822;-57
2022/12/14 05:47:03;;;;;;;;;0.80;0.80;;;;;-2.35;78.35;98464.78;5076719;28;8876;-58
2022/12/14 05:49:31;;;;;;;;;0.00;0.00;;;;;-2.36;78.11;98465.69;5076576;28;8846;-56
2022/12/14 05:51:59;;;;;;;;;1.00;1.00;;;;;-2.38;78.15;98464.09;5077055;28;8845;-58
2022/12/14 05:54:26;;;;;;;;;0.20;0.00;;;;;-2.38;78.65;98462.34;5077148;28;8873;-58
2022/12/14 05:56:54;;;;;;;;;0.00;0.00;;;;;-2.39;77.89;98455.44;5075903;28;8856;-58
2022/12/14 05:59:22;;;;;;;;;1.00;1.00;;;;;-2.40;78.19;98456.38;5076468;28;8837;-58
2022/12/14 06:01:50;;;;;;;;;0.00;0.00;;;;;-2.40;78.33;98452.91;5076282;28;8854;-59
2022/12/14 06:04:18;;;;;;;;;1.00;0.00;;;;;-2.42;78.18;98455.59;5076136;28;8853;-58
2022/12/14 06:06:46;;;;;;;;;1.00;1.00;;;;;-2.43;78.35;98458.28;5076211;28;8830;-58
2022/12/14 06:09:14;;;;;;;;;0.00;0.00;;;;;-2.45;78.69;98457.50;5075368;28;8860;-58
2022/12/14 06:11:44;;;;;;;;;0.60;0.60;;;;;-2.46;78.32;98458.44;5076358;28;8837;-58
2022/12/14 06:14:13;;;;;;;;;0.00;0.00;;;;;-2.48;78.63;98462.88;5076445;28;8923;-58
2022/12/14 06:16:41;;;;;;;;;1.00;1.00;;;;;-2.49;78.55;98461.22;5075234;28;8837;-58
2022/12/14 06:19:08;;;;;;;;;0.20;0.20;;;;;-2.51;78.48;98452.63;5075390;28;8845;-58
2022/12/14 06:21:36;;;;;;;;;1.40;1.40;;;;;-2.51;78.25;98444.81;5075317;28;8838;-56
2022/12/14 06:24:04;;;;;;;;;0.20;0.20;;;;;-2.52;78.51;98454.38;5074967;28;8833;-58
2022/12/14 06:26:33;;;;;;;;;0.80;0.80;;;;;-2.52;78.32;98449.19;5075253;28;9506;-58
2022/12/14 06:29:00;;;;;;;;;0.60;0.60;;;;;-2.51;78.71;98439.63;5073494;28;8833;-58
2022/12/14 06:31:28;;;;;;;;;0.20;0.20;;;;;-2.51;78.15;98437.00;5072860;28;8887;-59
2022/12/14 06:33:56;;;;;;;;;0.00;0.00;;;;;-2.50;78.35;98434.31;5071769;28;8834;-58
2022/12/14 06:36:24;;;;;;;;;0.00;0.00;;;;;-2.49;78.31;98437.75;5073162;28;8830;-58
2022/12/14 06:38:52;;;;;;;;;0.00;0.00;;;;;-2.50;78.49;98428.28;5072490;28;8954;-56
2022/12/14 06:41:20;;;;;;;;;1.00;0.20;;;;;-2.49;78.21;98425.56;5071452;28;8860;-58
2022/12/14 06:43:48;;;;;;;;;2.20;1.00;;;;;-2.48;77.70;98436.84;5072311;28;8833;-58
2022/12/14 06:46:16;;;;;;;;;0.00;0.00;;;;;-2.47;78.53;98431.56;5071945;28;8855;-58
2022/12/14 06:48:44;;;;;;;;;2.20;1.80;;;;;-2.45;78.32;98429.72;5071297;28;8845;-57
2022/12/14 06:51:12;;;;;;;;;1.00;1.00;;;;;-2.44;78.22;98427.97;5071679;28;8822;-59
2022/12/14 06:53:40;;;;;;;;;0.80;0.80;;;;;-2.44;77.73;98422.75;5071959;28;8860;-59
2022/12/14 06:56:08;;;;;;;;;0.40;0.40;;;;;-2.43;78.40;98427.03;5072214;28;8838;-59
2022/12/14 06:58:36;;;;;;;;;1.00;1.00;;;;;-2.43;78.47;98427.84;5072869;28;8860;-58
2022/12/14 07:01:03;;;;;;;;;0.00;0.00;;;;;-2.44;78.65;98426.19;5072942;28;8834;-57
2022/12/14 07:03:31;;;;;;;;;0.00;0.00;;;;;-2.44;78.47;98436.59;5072682;28;8818;-58
2022/12/14 07:05:59;;;;;;;;;0.20;0.20;;;;;-2.43;77.89;98442.66;5072164;28;8862;-58
2022/12/14 07:08:27;;;;;;;;;0.40;0.40;;;;;-2.44;77.90;98446.19;5072379;28;8825;-59
2022/12/14 07:10:55;;;;;;;;;0.60;0.60;;;;;-2.44;78.75;98440.97;5071781;28;8830;-59
2022/12/14 07:13:28;;;;;;;;;1.00;1.00;;;;;-2.44;78.19;98444.41;5070945;28;8877;-58
2022/12/14 07:15:57;;;;;;;;;0.00;0.00;;;;;-2.44;78.34;98436.59;5071116;28;8865;-58
2022/12/14 07:18:25;;;;;;;;;0.60;0.60;;;;;-2.43;78.04;98433.06;5070473;28;9511;-59
2022/12/14 07:20:53;;;;;;;;;0.40;0.40;;;;;-2.42;78.61;98436.53;5070424;28;8826;-57
2022/12/14 07:23:20;;;;;;;;;0.80;0.80;;;;;-2.41;78.61;98433.81;5070363;28;8864;-58
2022/12/14 07:25:55;;;;;;;;;0.00;0.00;;;;;-2.38;78.57;98443.25;5071319;28;8837;-58
2022/12/14 07:28:23;;;;;;;;;0.00;0.00;;;;;-2.39;78.59;98442.41;5071440;28;8810;-59
2022/12/14 07:30:51;;;;;;;;;0.20;0.00;;;;;-2.38;78.17;98440.63;5071313;28;8969;-58
2022/12/14 07:33:19;;;;;;;;;0.40;0.40;;;;;-2.36;78.25;98444.03;5072005;28;8853;-58
2022/12/14 07:35:47;;;;;;;;;0.00;0.00;;;;;-2.33;78.13;98444.72;5072477;28;8833;-58
2022/12/14 07:38:16;;;;;;;;;0.60;0.60;;;;;-2.32;78.19;98451.59;5072497;28;8821;-56
2022/12/14 07:40:44;;;;;;;;;1.00;1.00;;;;;-2.33;78.46;98449.94;5072815;28;9239;-58
2022/12/14 07:43:12;;;;;;;;;1.00;1.00;;;;;-2.32;78.38;98458.56;5073271;28;8862;-58
2022/12/14 07:45:39;;;;;;;;;0.40;0.20;;;;;-2.33;78.52;98449.06;5073578;28;8830;-58
2022/12/14 07:48:07;;;;;;;;;0.00;0.00;;;;;-2.33;78.43;98454.28;5072499;28;8927;-58
2022/12/14 07:50:38;;;;;;;;;3.00;3.00;;;;;-2.30;78.41;98454.09;5072137;28;8822;-57
2022/12/14 07:53:06;;;;;;;;;0.60;0.60;;;;;-2.28;78.47;98460.94;5072292;28;8825;-58
2022/12/14 07:55:33;;;;;;;;;1.00;1.00;;;;;-2.27;78.11;98457.41;5070919;28;8849;-58
2022/12/14 07:58:01;;;;;;;;;4.00;4.00;;;;;-2.23;78.39;98460.69;5071902;28;8838;-58
2022/12/14 08:00:29;;;;;;;;;4.60;3.40;;;;;-2.21;78.38;98466.69;5073738;28;8848;-56
2022/12/14 08:02:58;;;;;;;;;3.60;3.60;;;;;-2.17;78.49;98468.19;5076792;28;8867;-57
2022/12/14 08:05:26;;;;;;;;;1.00;1.00;;;;;-2.15;77.94;98461.13;5077494;28;8948;-58
2022/12/14 08:07:54;;;;;;;;;1.00;1.00;;;;;-2.14;77.80;98462.84;5077555;28;8830;-58
2022/12/14 08:10:22;;;;;;;;;1.00;1.00;;;;;-2.14;78.24;98461.06;5076238;28;8817;-58
2022/12/14 08:12:50;;;;;;;;;1.00;1.00;;;;;-2.11;78.57;98462.66;5074767;28;8830;-57
2022/12/14 08:15:19;;;;;;;;;1.00;1.00;;;;;-2.09;77.69;98458.19;5075739;28;8844;-58
2022/12/14 08:17:47;;;;;;;;;1.60;0.80;;;;;-2.07;77.70;98456.34;5076735;28;8838;-57
2022/12/14 08:20:15;;;;;;;;;1.00;1.00;;;;;-2.05;78.27;98470.97;5076282;28;8833;-58
2022/12/14 08:22:43;;;;;;;;;3.20;3.20;;;;;-2.03;78.04;98469.16;5076365;28;8825;-58
2022/12/14 08:25:10;;;;;;;;;2.20;2.20;;;;;-2.02;78.05;98464.78;5075245;28;8921;-58
2022/12/14 08:27:39;;;;;;;;;1.80;1.80;;;;;-1.96;78.04;98472.28;5076005;28;9590;-59
2022/12/14 08:30:07;;;;;;;;;0.80;0.80;;;;;-1.91;77.91;98476.31;5075501;28;8834;-56
2022/12/14 08:32:36;;;;;;;;;2.20;2.20;;;;;-1.88;77.90;98477.91;5075285;28;9522;-58
2022/12/14 08:35:04;;;;;;;;;1.00;1.00;;;;;-1.87;77.92;98487.44;5075411;28;8833;-58
2022/12/14 08:37:32;;;;;;;;;3.00;3.00;;;;;-1.83;77.92;98481.13;5075566;28;8845;-59
2022/12/14 08:40:02;;;;;;;;;1.00;1.00;;;;;-1.80;77.51;98476.59;5074111;28;8836;-58
2022/12/14 08:42:30;;;;;;;;;1.20;0.60;;;;;-1.78;77.34;98476.50;5074275;28;8850;-58
2022/12/14 08:44:58;;;;;;;;;1.80;1.00;;;;;-1.78;77.66;98474.75;5075446;28;8838;-58
2022/12/14 08:47:26;;;;;;;;;1.00;1.00;;;;;-1.73;77.59;98472.75;5075523;28;8915;-58
2022/12/14 08:49:54;;;;;;;;;2.20;2.20;;;;;-1.69;77.54;98470.78;5075878;28;8837;-59
2022/12/14 08:52:22;;;;;;;;;0.40;0.40;;;;;-1.64;77.61;98476.59;5075327;28;8846;-56
2022/12/14 08:54:50;;;;;;;;;3.00;3.00;;;;;-1.62;77.72;98475.59;5074441;28;8919;-58
2022/12/14 08:57:18;;;;;;;;;1.00;1.00;;;;;-1.58;77.18;98471.03;5074611;28;8853;-58
2022/12/14 08:59:46;;;;;;;;;0.20;0.20;;;;;-1.55;77.37;98470.88;5074063;28;8838;-59
2022/12/14 09:02:31;;;;;;;;;2.60;2.60;;;;;-1.51;76.98;98475.00;5074337;28;8939;-57
2022/12/14 09:05:00;;;;;;;;;3.80;3.00;;;;;-1.47;77.73;98481.72;5074952;28;8845;-59
2022/12/14 09:07:28;;;;;;;;;3.00;2.20;;;;;-1.41;77.34;98473.56;5074572;28;8818;-59
2022/12/14 09:09:55;;;;;;;;;1.40;1.40;;;;;-1.39;77.12;98474.31;5074428;28;8849;-58
2022/12/14 09:12:23;;;;;;;;;1.40;1.40;;;;;-1.39;77.03;98472.56;5074061;28;8845;-59
2022/12/14 09:14:52;;;;;;;;;4.20;3.60;;;;;-1.35;77.39;98468.00;5074194;28;8834;-59
2022/12/14 09:17:20;;;;;;;;;2.80;2.80;;;;;-1.35;77.00;98462.78;5075346;28;8814;-59
2022/12/14 09:19:48;;;;;;;;;0.60;0.60;;;;;-1.34;77.23;98469.69;5074579;28;9623;-58
2022/12/14 09:22:16;;;;;;;;;3.00;3.00;;;;;-1.34;77.02;98470.53;5074366;28;8826;-59
2022/12/14 09:24:45;;;;;;;;;1.00;1.00;;;;;-1.30;77.09;98476.44;5074163;28;8872;-58
2022/12/14 09:27:13;;;;;;;;;3.00;3.00;;;;;-1.25;77.06;98474.38;5073182;28;9774;-59
2022/12/14 09:29:41;;;;;;;;;0.00;0.00;;;;;-1.22;76.95;98475.06;5072978;28;8844;-58
2022/12/14 09:32:09;;;;;;;;;3.00;3.00;;;;;-1.23;76.77;98464.72;5073035;28;9168;-59
2022/12/14 09:34:37;;;;;;;;;0.20;0.00;;;;;-1.23;77.31;98477.78;5071967;28;8837;-59
2022/12/14 09:37:06;;;;;;;;;1.00;1.00;;;;;-1.20;76.58;98474.97;5072741;28;8848;-59
2022/12/14 09:39:36;;;;;;;;;3.60;3.00;;;;;-1.20;76.84;98472.38;5072799;28;8910;-58
2022/12/14 09:42:04;;;;;;;;;2.60;2.60;;;;;-1.19;77.16;98481.88;5072079;28;8826;-58
2022/12/14 09:44:32;;;;;;;;;2.20;2.20;;;;;-1.18;77.29;98487.03;5072386;28;8826;-58
2022/12/14 09:47:00;;;;;;;;;1.00;1.00;;;;;-1.15;76.90;98486.00;5072372;28;8834;-58
2022/12/14 09:49:28;;;;;;;;;3.00;3.00;;;;;-1.13;76.97;98487.59;5072394;28;9593;-58
2022/12/14 09:51:57;;;;;;;;;1.40;1.40;;;;;-1.08;77.37;98482.97;5072397;28;8842;-58
2022/12/14 09:54:25;;;;;;;;;3.00;3.00;;;;;-1.03;76.77;98480.09;5073324;28;8829;-58
2022/12/14 09:56:53;;;;;;;;;1.00;1.00;;;;;-1.01;76.75;98478.25;5073072;28;8890;-59
2022/12/14 09:59:21;;;;;;;;;3.80;3.00;;;;;-1.00;76.97;98477.31;5073778;28;8850;-59
2022/12/14 10:01:49;;;;;;;;;4.40;4.00;;;;;-0.97;77.20;98471.91;5074069;28;8867;-58
2022/12/14 10:04:36;;;;;;;;;1.40;1.00;;;;;-0.96;76.91;98469.22;5073305;28;8829;-57
2022/12/14 10:07:05;;;;;;;;;2.60;1.00;;;;;-0.93;77.14;98470.81;5073092;28;8833;-58
2022/12/14 10:09:33;;;;;;;;;2.20;2.20;;;;;-0.91;76.60;98474.19;5071888;28;8972;-59
2022/12/14 10:12:00;;;;;;;;;1.40;1.40;;;;;-0.88;76.75;98471.38;5071680;28;8848;-58
2022/12/14 10:14:28;;;;;;;;;1.00;1.00;;;;;-0.86;76.78;98474.75;5072998;28;8832;-59
2022/12/14 10:16:57;;;;;;;;;0.00;0.00;;;;;-0.84;76.59;98475.50;5073205;28;8885;-59
2022/12/14 10:19:26;;;;;;;;;3.40;3.40;;;;;-0.82;76.90;98471.88;5071933;28;9530;-58
2022/12/14 10:21:54;;;;;;;;;0.00;0.00;;;;;-0.79;76.24;98468.22;5071973;28;8980;-59
2022/12/14 10:24:22;;;;;;;;;1.00;0.60;;;;;-0.78;76.47;98462.91;5070277;28;8853;-59
2022/12/14 10:26:49;;;;;;;;;4.40;4.40;;;;;-0.77;76.43;98461.16;5070703;28;8880;-59
2022/12/14 10:29:17;;;;;;;;;1.80;1.80;;;;;-0.75;76.84;98464.53;5072089;28;9200;-58
2022/12/14 10:31:45;;;;;;;;;4.00;4.00;;;;;-0.73;76.96;98463.50;5070443;28;8846;-58
2022/12/14 10:34:14;;;;;;;;;3.20;3.20;;;;;-0.69;77.02;98453.72;5070917;28;8874;-58
2022/12/14 10:36:42;;;;;;;;;3.20;2.60;;;;;-0.65;76.71;98456.06;5070470;28;8833;-59
2022/12/14 10:39:10;;;;;;;;;0.00;0.00;;;;;-0.63;76.67;98456.81;5070726;28;8881;-59
2022/12/14 10:41:42;;;;;;;;;4.80;4.00;;;;;-0.61;76.67;98457.53;5070802;28;8849;-59
2022/12/14 10:44:16;;;;;;;;;5.60;4.00;;;;;-0.56;76.52;98465.09;5069220;28;9301;-59
2022/12/14 10:46:43;;;;;;;;;2.60;1.80;;;;;-0.56;76.40;98459.88;5070389;28;8833;-59
2022/12/14 10:49:11;;;;;;;;;0.60;0.60;;;;;-0.54;76.19;98458.03;5070129;28;8905;-59
2022/12/14 10:51:41;;;;;;;;;3.40;3.00;;;;;-0.51;76.33;98456.09;5070326;28;8846;-58
2022/12/14 10:54:09;;;;;;;;;5.60;5.60;;;;;-0.47;76.32;98454.97;5070772;28;8826;-57
2022/12/14 10:56:38;;;;;;;;;6.40;6.00;;;;;-0.40;75.99;98451.06;5071657;28;8927;-57
2022/12/14 10:59:06;;;;;;;;;6.60;6.60;;;;;-0.34;76.63;98455.06;5072782;28;8838;-59
2022/12/14 11:01:34;;;;;;;;;5.60;4.00;;;;;-0.27;76.14;98456.38;5072160;28;8926;-59
2022/12/14 11:04:03;;;;;;;;;3.20;3.20;;;;;-0.23;75.65;98452.66;5070566;28;8859;-59
2022/12/14 11:06:31;;;;;;;;;5.20;5.20;;;;;-0.18;76.38;98448.84;5071057;28;8817;-57
2022/12/14 11:08:59;;;;;;;;;3.20;3.20;;;;;-0.13;76.31;98448.56;5071008;28;8826;-60
2022/12/14 11:11:27;;;;;;;;;4.00;3.00;;;;;-0.09;76.58;98442.22;5070236;28;8848;-60
2022/12/14 11:13:55;;;;;;;;;1.00;1.00;;;;;-0.07;75.57;98439.41;5070987;28;8850;-58
2022/12/14 11:16:24;;;;;;;;;2.20;2.20;;;;;-0.02;75.64;98437.34;5071169;28;9507;-60
2022/12/14 11:19:01;;;;;;;;;1.00;1.00;;;;;0.04;75.87;98429.13;5070679;28;9497;-59
2022/12/14 11:21:29;;;;;;;;;1.40;1.40;;;;;0.08;75.33;98438.47;5070750;28;8860;-60
2022/12/14 11:23:57;;;;;;;;;1.00;1.00;;;;;0.11;75.84;98434.81;5070816;28;8833;-59
2022/12/14 11:26:25;;;;;;;;;1.40;1.40;;;;;0.15;75.84;98433.66;5072235;28;8965;-60
2022/12/14 11:28:53;;;;;;;;;2.60;1.00;;;;;0.18;75.87;98425.66;5070847;28;8829;-60
2022/12/14 11:31:21;;;;;;;;;3.00;3.00;;;;;0.23;75.86;98424.41;5070959;28;8837;-60
2022/12/14 11:33:50;;;;;;;;;3.40;3.40;;;;;0.28;75.38;98421.50;5071735;28;8829;-59
2022/12/14 11:36:18;;;;;;;;;0.80;0.80;;;;;0.33;74.97;98416.84;5070265;28;8843;-59
2022/12/14 11:38:46;;;;;;;;;3.60;3.60;;;;;0.36;75.80;98414.88;5069249;28;8853;-59
2022/12/14 11:41:14;;;;;;;;;3.00;3.00;;;;;0.41;74.98;98412.81;5070680;28;8833;-59
2022/12/14 11:43:42;;;;;;;;;4.40;4.40;;;;;0.47;74.81;98414.19;5070854;28;8892;-59
2022/12/14 11:46:10;;;;;;;;;3.00;3.00;;;;;0.51;74.87;98413.91;5070430;28;8837;-60
2022/12/14 11:48:38;;;;;;;;;5.40;4.80;;;;;0.55;74.91;98414.53;5069947;28;8841;-59
2022/12/14 11:51:06;;;;;;;;;4.00;3.60;;;;;0.57;74.41;98421.38;5069734;28;8822;-59
2022/12/14 11:53:34;;;;;;;;;5.60;5.60;;;;;0.58;74.95;98423.03;5070104;28;8834;-58
2022/12/14 11:56:02;;;;;;;;;3.00;3.00;;;;;0.59;74.81;98419.47;5070710;28;8896;-57